createdAt,value
2018-12-04T00:01:19.746Z,1.70
2018-12-04T00:03:50.699Z,1.90
2018-12-04T00:06:20.358Z,1.80
2018-12-04T00:08:50.582Z,2.27
2018-12-04T00:11:20.670Z,1.83
2018-12-04T00:13:50.605Z,2.17
2018-12-04T00:16:21.069Z,2.10
2018-12-04T00:18:51.917Z,2.10
2018-12-04T00:21:24.593Z,1.70
2018-12-04T00:23:54.524Z,2.30
2018-12-04T00:26:25.832Z,2.47
2018-12-04T00:28:55.650Z,1.70
2018-12-04T00:31:26.094Z,1.80
2018-12-04T00:33:57.471Z,2.60
2018-12-04T00:36:28.819Z,2.50
2018-12-04T00:38:58.599Z,1.87
2018-12-04T00:41:30.272Z,1.80
2018-12-04T00:44:00.313Z,2.30
2018-12-04T00:46:30.461Z,1.60
2018-12-04T00:49:01.805Z,1.60
2018-12-04T00:51:32.050Z,1.80
2018-12-04T00:54:01.761Z,1.70
2018-12-04T00:56:31.942Z,2.07
2018-12-04T00:59:01.922Z,1.87
2018-12-04T01:01:34.935Z,2.13
2018-12-04T01:04:04.878Z,1.97
2018-12-04T01:06:35.525Z,2.30
2018-12-04T01:09:11.373Z,1.70
2018-12-04T01:11:41.208Z,1.93
2018-12-04T01:14:11.773Z,2.07
2018-12-04T01:16:41.577Z,1.63
2018-12-04T01:19:11.878Z,1.60
2018-12-04T01:21:41.594Z,2.60
2018-12-04T01:24:11.975Z,2.53
2018-12-04T01:26:42.690Z,1.80
2018-12-04T01:29:12.889Z,1.40
2018-12-04T01:31:42.559Z,1.93
2018-12-04T01:34:12.626Z,2.00
2018-12-04T01:36:43.206Z,1.90
2018-12-04T01:39:13.054Z,1.90
2018-12-04T01:41:43.049Z,2.00
2018-12-04T01:44:13.069Z,1.33
2018-12-04T01:46:42.902Z,1.50
2018-12-04T01:49:13.165Z,1.97
2018-12-04T01:51:42.900Z,2.30
2018-12-04T01:54:12.550Z,1.70
2018-12-04T01:56:42.877Z,1.60
2018-12-04T01:59:13.006Z,1.90
2018-12-04T02:01:47.721Z,1.70
2018-12-04T02:04:17.293Z,1.70
2018-12-04T02:06:47.890Z,2.50
2018-12-04T02:09:17.749Z,1.93
2018-12-04T02:11:48.324Z,2.10
2018-12-04T02:14:18.164Z,1.87
2018-12-04T02:16:48.281Z,2.03
2018-12-04T02:19:18.881Z,1.70
2018-12-04T02:21:49.001Z,1.67
2018-12-04T02:24:18.990Z,2.20
2018-12-04T02:26:48.897Z,1.90
2018-12-04T02:29:18.961Z,2.17
2018-12-04T02:31:48.833Z,2.00
2018-12-04T02:34:18.575Z,1.50
2018-12-04T02:36:49.375Z,2.00
2018-12-04T02:39:18.985Z,2.03
2018-12-04T02:41:49.001Z,2.07
2018-12-04T02:44:18.752Z,1.43
2018-12-04T02:46:48.483Z,1.90
2018-12-04T02:49:19.695Z,1.50
2018-12-04T02:51:50.141Z,2.20
2018-12-04T02:54:20.329Z,1.53
2018-12-04T02:56:50.392Z,1.67
2018-12-04T02:59:20.467Z,1.43
2018-12-04T03:01:55.024Z,1.30
2018-12-04T03:04:24.898Z,2.10
2018-12-04T03:06:54.912Z,2.10
2018-12-04T03:09:25.073Z,2.00
2018-12-04T03:11:55.420Z,2.10
2018-12-04T03:14:26.887Z,2.10
2018-12-04T03:16:57.269Z,2.00
2018-12-04T03:19:27.909Z,2.23
2018-12-04T03:21:57.819Z,2.00
2018-12-04T03:24:27.699Z,2.37
2018-12-04T03:26:58.444Z,1.80
2018-12-04T03:29:28.477Z,1.50
2018-12-04T03:31:58.589Z,1.57
2018-12-04T03:34:29.456Z,2.17
2018-12-04T03:36:59.966Z,2.00
2018-12-04T03:39:30.715Z,1.77
2018-12-04T03:42:00.872Z,1.60
2018-12-04T03:44:30.994Z,1.70
2018-12-04T03:47:01.512Z,1.67
2018-12-04T03:49:32.452Z,2.57
2018-12-04T03:52:02.917Z,1.70
2018-12-04T03:54:33.285Z,1.37
2018-12-04T03:57:03.672Z,2.20
2018-12-04T03:59:35.802Z,2.10
2018-12-04T04:02:12.367Z,1.53
2018-12-04T04:04:43.526Z,2.00
2018-12-04T04:07:13.488Z,1.90
2018-12-04T04:09:43.462Z,1.70
2018-12-04T04:12:13.688Z,1.87
2018-12-04T04:14:43.807Z,1.70
2018-12-04T04:17:13.638Z,1.87
2018-12-04T04:19:45.237Z,1.40
2018-12-04T04:22:16.039Z,1.67
2018-12-04T04:24:46.026Z,1.67
2018-12-04T04:27:16.863Z,1.40
2018-12-04T04:29:46.867Z,1.60
2018-12-04T04:32:17.060Z,1.60
2018-12-04T04:34:48.148Z,1.77
2018-12-04T04:37:18.795Z,1.40
2018-12-04T04:39:48.903Z,1.70
2018-12-04T04:42:19.182Z,1.90
2018-12-04T04:44:49.728Z,1.53
2018-12-04T04:47:19.817Z,1.60
2018-12-04T04:49:50.025Z,1.33
2018-12-04T04:52:20.981Z,1.60
2018-12-04T04:54:50.740Z,1.60
2018-12-04T04:57:22.181Z,2.00
2018-12-04T04:59:52.199Z,1.43
2018-12-04T05:02:22.109Z,1.83
2018-12-04T05:04:53.292Z,1.50
2018-12-04T05:07:24.180Z,1.70
2018-12-04T05:09:54.451Z,1.77
2018-12-04T05:12:24.610Z,1.33
2018-12-04T05:14:55.664Z,1.60
2018-12-04T05:17:27.046Z,1.63
2018-12-04T05:19:57.640Z,1.57
2018-12-04T05:22:30.153Z,1.50
2018-12-04T05:25:00.277Z,1.57
2018-12-04T05:27:30.487Z,1.10
2018-12-04T05:30:00.654Z,1.53
2018-12-04T05:32:30.834Z,1.60
2018-12-04T05:35:01.388Z,2.30
2018-12-04T05:37:31.766Z,1.47
2018-12-04T05:40:01.980Z,1.90
2018-12-04T05:42:32.241Z,1.87
2018-12-04T05:45:03.621Z,1.97
2018-12-04T05:47:34.017Z,1.87
2018-12-04T05:50:04.033Z,2.10
2018-12-04T05:52:35.016Z,1.70
2018-12-04T05:55:06.059Z,1.90
2018-12-04T05:57:36.209Z,1.90
2018-12-04T06:00:08.652Z,1.43
2018-12-04T06:02:39.777Z,1.60
2018-12-04T06:05:11.127Z,1.93
2018-12-04T06:07:43.327Z,1.67
2018-12-04T06:10:14.629Z,1.80
2018-12-04T06:12:45.284Z,2.43
2018-12-04T06:15:17.533Z,1.80
2018-12-04T06:17:47.564Z,1.67
2018-12-04T06:20:17.628Z,1.70
2018-12-04T06:22:48.181Z,2.07
2018-12-04T06:25:22.591Z,2.30
2018-12-04T06:27:53.433Z,1.40
2018-12-04T06:30:23.418Z,1.70
2018-12-04T06:32:53.950Z,1.60
2018-12-04T06:35:24.146Z,2.37
2018-12-04T06:37:53.998Z,3.07
2018-12-04T06:40:23.850Z,1.87
2018-12-04T06:42:53.913Z,1.70
2018-12-04T06:45:25.433Z,1.90
2018-12-04T06:47:56.141Z,2.40
2018-12-04T06:50:28.838Z,1.57
2018-12-04T06:52:59.934Z,1.80
2018-12-04T06:55:30.039Z,1.60
2018-12-04T06:58:00.369Z,1.57
2018-12-04T07:00:30.925Z,1.50
2018-12-04T07:03:01.264Z,1.80
2018-12-04T07:05:32.028Z,1.77
2018-12-04T07:08:02.265Z,1.60
2018-12-04T07:10:32.475Z,1.87
2018-12-04T07:13:03.086Z,1.70
2018-12-04T07:15:35.066Z,2.00
2018-12-04T07:18:06.041Z,2.10
2018-12-04T07:20:36.128Z,1.87
2018-12-04T07:23:06.590Z,1.73
2018-12-04T07:25:36.677Z,2.30
2018-12-04T07:28:06.816Z,1.77
2018-12-04T07:30:39.984Z,1.67
2018-12-04T07:33:10.604Z,1.57
2018-12-04T07:35:41.492Z,2.73
2018-12-04T07:38:11.233Z,2.07
2018-12-04T07:40:43.559Z,2.00
2018-12-04T07:43:14.637Z,2.17
2018-12-04T07:45:44.841Z,2.37
2018-12-04T07:48:14.962Z,1.73
2018-12-04T07:50:46.165Z,2.47
2018-12-04T07:53:21.804Z,1.87
2018-12-04T07:55:53.597Z,2.70
2018-12-04T07:58:23.557Z,2.33
2018-12-04T08:00:53.798Z,2.70
2018-12-04T08:03:23.978Z,2.40
2018-12-04T08:05:54.377Z,2.50
2018-12-04T08:08:25.040Z,2.20
2018-12-04T08:10:57.032Z,2.30
2018-12-04T08:13:28.253Z,2.90
2018-12-04T08:15:58.435Z,2.40
2018-12-04T08:18:28.768Z,2.00
2018-12-04T08:20:58.947Z,2.70
2018-12-04T08:23:30.236Z,2.20
2018-12-04T08:26:01.410Z,2.23
2018-12-04T08:28:31.937Z,1.83
2018-12-04T08:31:02.877Z,2.53
2018-12-04T08:33:35.729Z,2.80
2018-12-04T08:36:06.057Z,2.30
2018-12-04T08:38:37.300Z,2.83
2018-12-04T08:41:07.860Z,2.30
2018-12-04T08:43:38.305Z,3.03
2018-12-04T08:46:09.151Z,4.00
2018-12-04T08:48:41.980Z,1.60
2018-12-04T08:51:12.121Z,2.20
2018-12-04T08:53:44.249Z,2.27
2018-12-04T08:56:14.481Z,2.60
2018-12-04T08:58:45.275Z,2.70
2018-12-04T09:01:17.593Z,3.20
2018-12-04T09:03:48.554Z,3.10
2018-12-04T09:06:19.590Z,2.13
2018-12-04T09:08:49.881Z,2.50
2018-12-04T09:11:24.126Z,2.37
2018-12-04T09:13:54.310Z,2.80
2018-12-04T09:16:26.333Z,2.60
2018-12-04T09:18:58.295Z,2.10
2018-12-04T09:21:28.776Z,1.83
2018-12-04T09:24:00.596Z,1.83
2018-12-04T09:26:30.585Z,2.13
2018-12-04T09:29:01.405Z,2.00
2018-12-04T09:31:32.974Z,2.50
2018-12-04T09:34:04.610Z,2.83
2018-12-04T09:36:36.040Z,2.33
2018-12-04T09:39:09.788Z,3.07
2018-12-04T09:41:39.776Z,1.80
2018-12-04T09:44:10.325Z,2.53
2018-12-04T09:46:40.985Z,2.27
2018-12-04T09:49:12.179Z,2.33
2018-12-04T09:54:22.302Z,2.00
2018-12-04T09:56:53.032Z,2.07
2018-12-04T09:59:23.826Z,2.00
2018-12-04T10:04:54.486Z,2.10
2018-12-04T10:07:25.738Z,2.33
2018-12-04T10:10:00.624Z,2.00
2018-12-04T10:12:29.506Z,2.63
2018-12-04T10:14:59.936Z,1.70
2018-12-04T10:17:30.093Z,1.93
2018-12-04T10:20:02.069Z,2.20
2018-12-04T10:22:33.814Z,2.00
2018-12-04T10:25:04.043Z,1.80
2018-12-04T10:27:36.730Z,1.90
2018-12-04T10:30:09.266Z,2.17
2018-12-04T10:32:40.811Z,1.50
2018-12-04T10:35:11.676Z,2.10
2018-12-04T10:37:42.888Z,2.20
2018-12-04T10:40:16.613Z,1.47
2018-12-04T10:42:47.112Z,2.10
2018-12-04T10:45:18.625Z,1.50
2018-12-04T10:47:49.100Z,2.03
2018-12-04T10:50:19.182Z,1.87
2018-12-04T10:52:49.253Z,1.83
2018-12-04T10:55:20.331Z,1.70
2018-12-04T10:57:50.416Z,2.10
2018-12-04T11:00:26.487Z,1.60
2018-12-04T11:03:02.296Z,1.73
2018-12-04T11:05:33.250Z,1.97
2018-12-04T11:08:03.458Z,2.13
2018-12-04T11:10:33.583Z,1.90
2018-12-04T11:13:03.974Z,2.03
2018-12-04T11:15:35.458Z,1.70
2018-12-04T11:18:05.756Z,1.70
2018-12-04T11:20:37.332Z,1.80
2018-12-04T11:23:07.528Z,1.87
2018-12-04T11:25:37.597Z,1.77
2018-12-04T11:28:08.058Z,1.70
2018-12-04T11:30:38.413Z,1.57
2018-12-04T11:33:09.625Z,1.77
2018-12-04T11:35:39.928Z,1.93
2018-12-04T11:38:09.873Z,2.00
2018-12-04T11:40:40.483Z,1.80
2018-12-04T11:43:12.227Z,1.50
2018-12-04T11:45:42.732Z,1.40
2018-12-04T11:48:15.646Z,1.90
2018-12-04T11:50:46.957Z,1.70
2018-12-04T11:53:17.830Z,1.63
2018-12-04T11:55:47.847Z,1.33
2018-12-04T11:58:18.642Z,1.70
2018-12-04T12:00:48.627Z,1.40
2018-12-04T12:03:19.258Z,1.50
2018-12-04T12:05:52.829Z,1.50
2018-12-04T12:08:24.876Z,2.03
2018-12-04T12:10:55.082Z,1.43
2018-12-04T12:13:25.502Z,1.90
2018-12-04T12:15:57.302Z,2.23
2018-12-04T12:18:29.783Z,1.37
2018-12-04T12:21:04.879Z,1.50
2018-12-04T12:23:35.980Z,1.70
2018-12-04T12:26:08.257Z,1.80
2018-12-04T12:28:38.979Z,1.57
2018-12-04T12:31:12.071Z,1.70
2018-12-04T12:33:44.690Z,1.97
2018-12-04T12:36:23.425Z,2.03
2018-12-04T12:39:00.517Z,1.80
2018-12-04T12:41:34.699Z,2.00
2018-12-04T12:44:10.709Z,2.00
2018-12-04T12:46:42.049Z,1.57
2018-12-04T12:49:12.359Z,1.83
2018-12-04T12:51:43.117Z,1.83
2018-12-04T12:54:13.755Z,1.80
2018-12-04T12:56:44.374Z,2.20
2018-12-04T12:59:16.015Z,2.60
2018-12-04T13:01:52.965Z,1.70
2018-12-04T13:04:26.359Z,1.53
2018-12-04T13:07:01.823Z,1.43
2018-12-04T13:09:32.009Z,1.77
2018-12-04T13:12:02.232Z,1.70
2018-12-04T13:14:32.292Z,1.70
2018-12-04T13:17:03.585Z,1.73
2018-12-04T13:19:33.889Z,1.50
2018-12-04T13:22:04.537Z,1.70
2018-12-04T13:24:35.025Z,2.07
2018-12-04T13:27:06.777Z,1.73
2018-12-04T13:29:37.862Z,1.33
2018-12-04T13:32:08.171Z,2.00
2018-12-04T13:34:39.142Z,1.50
2018-12-04T13:37:09.112Z,1.97
2018-12-04T13:39:39.793Z,2.00
2018-12-04T13:42:11.330Z,1.50
2018-12-04T13:44:42.440Z,1.87
2018-12-04T13:47:13.757Z,1.57
2018-12-04T13:49:47.784Z,1.47
2018-12-04T13:52:21.482Z,2.30
2018-12-04T13:54:51.511Z,1.40
2018-12-04T13:57:21.868Z,1.90
2018-12-04T13:59:52.181Z,1.70
2018-12-04T14:02:22.822Z,1.57
2018-12-04T14:04:53.699Z,1.33
2018-12-04T14:07:25.291Z,1.63
2018-12-04T14:09:57.086Z,2.00
2018-12-04T14:12:27.089Z,1.40
2018-12-04T14:14:57.977Z,1.70
2018-12-04T14:17:28.213Z,1.97
2018-12-04T14:19:58.920Z,2.10
2018-12-04T14:22:29.401Z,1.90
2018-12-04T14:25:01.068Z,2.00
2018-12-04T14:27:33.771Z,1.80
2018-12-04T14:30:05.999Z,2.23
2018-12-04T14:32:37.175Z,2.07
2018-12-04T14:35:09.828Z,1.90
2018-12-04T14:37:41.187Z,1.63
2018-12-04T14:40:12.115Z,1.87
2018-12-04T14:42:43.616Z,1.77
2018-12-04T14:45:16.018Z,2.30
2018-12-04T14:47:47.525Z,2.13
2018-12-04T14:50:18.898Z,1.67
2018-12-04T14:52:52.003Z,1.87
2018-12-04T14:55:22.897Z,2.57
2018-12-04T14:58:00.838Z,2.00
2018-12-04T15:00:33.325Z,2.57
2018-12-04T15:03:04.075Z,2.37
2018-12-04T15:05:36.624Z,2.20
2018-12-04T15:08:07.587Z,1.90
2018-12-04T15:10:39.989Z,2.00
2018-12-04T15:13:10.203Z,1.90
2018-12-04T15:15:41.372Z,2.70
2018-12-04T15:18:12.123Z,2.60
2018-12-04T15:20:43.357Z,2.10
2018-12-04T15:23:15.445Z,2.10
2018-12-04T15:25:47.326Z,2.80
2018-12-04T15:28:18.776Z,1.83
2018-12-04T15:30:49.353Z,2.57
2018-12-04T15:33:19.489Z,2.00
2018-12-04T15:35:50.226Z,2.37
2018-12-04T15:38:21.217Z,2.30
2018-12-04T15:40:51.630Z,2.43
2018-12-04T15:43:23.378Z,2.60
2018-12-04T15:45:59.414Z,2.20
2018-12-04T15:48:30.605Z,2.80
2018-12-04T15:51:01.464Z,2.20
2018-12-04T15:53:32.069Z,2.23
2018-12-04T15:56:02.757Z,2.53
2018-12-04T15:58:33.108Z,2.57
2018-12-04T16:01:03.531Z,2.23
2018-12-04T16:03:34.002Z,2.10
2018-12-04T16:06:06.784Z,2.60
2018-12-04T16:08:37.031Z,2.13
2018-12-04T16:11:08.931Z,2.00
2018-12-04T16:13:41.022Z,2.37
2018-12-04T16:16:11.224Z,2.33
2018-12-04T16:18:41.969Z,2.37
2018-12-04T16:21:12.226Z,2.10
2018-12-04T16:23:42.369Z,2.50
2018-12-04T16:26:14.999Z,2.17
2018-12-04T16:28:45.250Z,2.50
2018-12-04T16:31:16.417Z,2.30
2018-12-04T16:33:48.041Z,2.13
2018-12-04T16:36:20.289Z,2.63
2018-12-04T16:38:50.484Z,2.90
2018-12-04T16:41:22.220Z,2.70
2018-12-04T16:43:54.250Z,2.23
2018-12-04T16:46:25.426Z,2.27
2018-12-04T16:48:57.449Z,2.40
2018-12-04T16:51:28.698Z,2.40
2018-12-04T16:54:00.685Z,2.80
2018-12-04T16:56:31.653Z,2.13
2018-12-04T16:59:02.072Z,2.00
2018-12-04T17:01:33.997Z,2.20
2018-12-04T17:04:05.938Z,2.30
2018-12-04T17:06:37.003Z,2.40
2018-12-04T17:09:09.070Z,2.73
2018-12-04T17:11:39.682Z,2.50
2018-12-04T17:14:10.666Z,2.30
2018-12-04T17:16:41.404Z,2.20
2018-12-04T17:19:13.644Z,2.70
2018-12-04T17:21:44.665Z,2.67
2018-12-04T17:24:16.028Z,2.23
2018-12-04T17:26:47.174Z,2.40
2018-12-04T17:29:18.846Z,2.43
2018-12-04T17:31:50.653Z,2.10
2018-12-04T17:34:23.664Z,2.37
2018-12-04T17:36:55.152Z,2.20
2018-12-04T17:39:26.559Z,2.23
2018-12-04T17:41:57.378Z,2.60
2018-12-04T17:44:28.789Z,3.00
2018-12-04T17:47:02.670Z,3.07
2018-12-04T17:49:35.180Z,2.20
2018-12-04T17:52:06.912Z,2.87
2018-12-04T17:54:37.769Z,3.70
2018-12-04T17:57:09.354Z,4.03
2018-12-04T17:59:41.859Z,4.00
2018-12-04T18:02:14.896Z,3.40
2018-12-04T18:04:45.114Z,2.90
2018-12-04T18:07:17.353Z,4.70
2018-12-04T18:09:47.794Z,5.13
2018-12-04T18:12:18.618Z,4.60
2018-12-04T18:14:49.048Z,4.50
2018-12-04T18:17:20.867Z,3.90
2018-12-04T18:19:51.613Z,3.57
2018-12-04T18:22:22.066Z,4.30
2018-12-04T18:24:52.641Z,4.07
2018-12-04T18:27:23.509Z,5.37
2018-12-04T18:29:54.756Z,5.40
2018-12-04T18:32:26.363Z,6.07
2018-12-04T18:34:56.954Z,5.77
2018-12-04T18:37:28.254Z,5.57
2018-12-04T18:40:01.054Z,5.00
2018-12-04T18:42:31.454Z,6.70
2018-12-04T18:45:02.268Z,6.87
2018-12-04T18:47:33.719Z,5.83
2018-12-04T18:50:06.394Z,8.63
2018-12-04T18:52:39.775Z,9.53
2018-12-04T18:55:16.493Z,9.90
2018-12-04T18:57:46.885Z,11.60
2018-12-04T19:00:17.604Z,10.90
2018-12-04T19:02:48.566Z,11.90
2018-12-04T19:05:21.517Z,11.10
2018-12-04T19:07:52.913Z,11.00
2018-12-04T19:10:23.378Z,11.10
2018-12-04T19:12:54.185Z,12.50
2018-12-04T19:15:25.951Z,12.87
2018-12-04T19:17:56.585Z,13.20
2018-12-04T19:20:29.040Z,13.47
2018-12-04T19:23:00.517Z,13.07
2018-12-04T19:25:30.549Z,13.90
2018-12-04T19:28:02.196Z,14.30
2018-12-04T19:30:33.856Z,15.50
2018-12-04T19:33:04.445Z,16.90
2018-12-04T19:35:34.669Z,18.27
2018-12-04T19:38:08.697Z,17.33
2018-12-04T19:40:40.143Z,19.17
2018-12-04T19:43:12.063Z,22.43
2018-12-04T19:45:42.288Z,24.37
2018-12-04T19:48:12.864Z,22.60
2018-12-04T19:50:43.930Z,24.53
2018-12-04T19:53:16.380Z,25.73
2018-12-04T19:56:52.667Z,22.63
2018-12-04T19:59:23.243Z,20.50
2018-12-04T20:01:56.905Z,21.63
2018-12-04T20:04:28.099Z,21.10
2018-12-04T20:06:59.089Z,17.73
2018-12-04T20:09:29.351Z,17.90
2018-12-04T20:12:01.008Z,17.37
2018-12-04T20:14:31.258Z,17.67
2018-12-04T20:17:03.605Z,16.47
2018-12-04T20:19:34.261Z,15.33
2018-12-04T20:22:04.861Z,14.63
2018-12-04T20:24:35.771Z,16.30
2018-12-04T20:27:07.442Z,16.03
2018-12-04T20:29:37.964Z,16.50
2018-12-04T20:32:09.598Z,15.60
2018-12-04T20:34:40.672Z,15.93
2018-12-04T20:37:12.703Z,16.97
2018-12-04T20:39:45.648Z,17.23
2018-12-04T20:42:23.063Z,18.70
2018-12-04T20:44:49.818Z,18.03
2018-12-04T20:47:22.557Z,21.37
2018-12-04T20:49:53.522Z,21.60
2018-12-04T20:52:25.606Z,21.83
2018-12-04T20:54:58.027Z,19.50
2018-12-04T20:57:29.060Z,19.30
2018-12-04T21:00:00.202Z,22.17
2018-12-04T21:02:30.929Z,21.37
2018-12-04T21:05:02.809Z,21.20
2018-12-04T21:07:34.958Z,20.60
2018-12-04T21:10:06.468Z,22.23
2018-12-04T21:12:37.594Z,22.00
2018-12-04T21:15:10.804Z,23.40
2018-12-04T21:18:12.637Z,20.40
2018-12-04T21:20:44.391Z,20.40
2018-12-04T21:23:14.597Z,19.90
2018-12-04T21:25:45.017Z,18.20
2018-12-04T21:28:20.167Z,16.70
2018-12-04T21:30:56.464Z,17.50
2018-12-04T21:35:39.197Z,18.03
2018-12-04T21:38:16.463Z,14.10
2018-12-04T21:40:52.121Z,14.77
2018-12-04T21:43:30.072Z,14.73
2018-12-04T21:46:05.845Z,13.97
2018-12-04T21:48:36.830Z,12.23
2018-12-04T21:51:07.972Z,12.33
2018-12-04T21:53:39.300Z,11.27
2018-12-04T21:56:09.656Z,10.70
2018-12-04T21:58:40.681Z,12.27
2018-12-04T22:01:10.759Z,11.30
2018-12-04T22:03:41.292Z,12.53
2018-12-04T22:06:11.778Z,11.83
2018-12-04T22:08:43.501Z,11.83
2018-12-04T22:11:14.425Z,11.63
2018-12-04T22:13:44.949Z,12.30
2018-12-04T22:16:15.156Z,12.73
2018-12-04T22:18:45.854Z,11.47
2018-12-04T22:21:16.849Z,12.37
2018-12-04T22:23:46.901Z,12.47
2018-12-04T22:26:17.308Z,11.43
2018-12-04T22:28:49.709Z,12.77
2018-12-04T22:31:20.717Z,11.83
2018-12-04T22:33:51.681Z,12.50
2018-12-04T22:36:21.969Z,11.90
2018-12-04T22:38:55.816Z,11.20
2018-12-04T22:41:26.180Z,11.47
2018-12-04T22:43:58.091Z,10.80
2018-12-04T22:46:29.477Z,11.57
2018-12-04T22:49:03.287Z,11.30
2018-12-04T22:51:34.208Z,12.00
2018-12-04T22:54:05.641Z,11.80
2018-12-04T22:56:35.900Z,11.90
2018-12-04T22:59:07.855Z,11.30
2018-12-04T23:01:41.198Z,10.27
2018-12-04T23:04:12.524Z,10.10
2018-12-04T23:06:42.781Z,10.10
2018-12-04T23:09:14.766Z,9.17
2018-12-04T23:11:46.138Z,9.13
2018-12-04T23:14:16.557Z,9.20
2018-12-04T23:16:47.202Z,10.07
2018-12-04T23:19:18.328Z,9.30
2018-12-04T23:21:48.440Z,9.33
2018-12-04T23:24:18.756Z,9.20
2018-12-04T23:26:48.979Z,8.90
2018-12-04T23:29:20.128Z,9.20
2018-12-04T23:31:50.524Z,9.30
2018-12-04T23:34:20.925Z,9.10
2018-12-04T23:36:50.853Z,9.20
2018-12-04T23:39:20.584Z,9.30
2018-12-04T23:41:50.841Z,11.10
2018-12-04T23:44:23.440Z,9.10
2018-12-04T23:46:54.624Z,10.23
2018-12-04T23:49:25.543Z,9.20
2018-12-04T23:51:56.329Z,10.33
2018-12-04T23:54:26.247Z,9.90
2018-12-04T23:56:56.556Z,9.00
2018-12-04T23:59:26.744Z,9.83
